TAF Text Data
IDs:
Format:
Raw Decoded Include METAR

Data at: 2051 UTC 21 Sep 2021

KPGV 211744Z 2118/2218 11013G18KT P6SM BKN035
  FM220400 12007KT P6SM BKN028
  FM221400 14011G19KT 6SM -SHRA BKN015 AMD LTD TO CLD VIS AND WIND